sensor_id;sensor_type;location;lat;lon;timestamp;temperature;humidity
11426;DHT22;5769;47.998;7.788;2022-11-20T00:00:33;19.60;62.20
11426;DHT22;5769;47.998;7.788;2022-11-20T00:03:00;19.60;62.00
11426;DHT22;5769;47.998;7.788;2022-11-20T00:05:27;19.60;62.10
11426;DHT22;5769;47.998;7.788;2022-11-20T00:07:54;19.60;61.70
11426;DHT22;5769;47.998;7.788;2022-11-20T00:10:20;19.60;61.70
11426;DHT22;5769;47.998;7.788;2022-11-20T00:12:47;19.60;61.70
11426;DHT22;5769;47.998;7.788;2022-11-20T00:15:15;19.60;61.90
11426;DHT22;5769;47.998;7.788;2022-11-20T00:17:42;19.60;61.80
11426;DHT22;5769;47.998;7.788;2022-11-20T00:20:09;19.60;61.90
11426;DHT22;5769;47.998;7.788;2022-11-20T00:22:36;19.60;61.80
11426;DHT22;5769;47.998;7.788;2022-11-20T00:25:04;19.60;61.80
11426;DHT22;5769;47.998;7.788;2022-11-20T00:27:30;19.60;61.80
11426;DHT22;5769;47.998;7.788;2022-11-20T00:29:57;19.60;61.40
11426;DHT22;5769;47.998;7.788;2022-11-20T00:32:25;19.60;61.60
11426;DHT22;5769;47.998;7.788;2022-11-20T00:34:52;19.60;61.40
11426;DHT22;5769;47.998;7.788;2022-11-20T00:37:18;19.60;61.30
11426;DHT22;5769;47.998;7.788;2022-11-20T00:39:45;19.60;61.30
11426;DHT22;5769;47.998;7.788;2022-11-20T00:42:12;19.60;61.00
11426;DHT22;5769;47.998;7.788;2022-11-20T00:44:39;19.60;61.00
11426;DHT22;5769;47.998;7.788;2022-11-20T00:47:05;19.60;61.10
11426;DHT22;5769;47.998;7.788;2022-11-20T00:49:33;19.60;61.10
11426;DHT22;5769;47.998;7.788;2022-11-20T00:52:00;19.60;60.90
11426;DHT22;5769;47.998;7.788;2022-11-20T00:54:27;19.60;61.00
11426;DHT22;5769;47.998;7.788;2022-11-20T00:56:53;19.50;60.80
11426;DHT22;5769;47.998;7.788;2022-11-20T00:59:20;19.60;60.90
11426;DHT22;5769;47.998;7.788;2022-11-20T01:01:47;19.60;60.90
11426;DHT22;5769;47.998;7.788;2022-11-20T01:04:13;19.50;60.90
11426;DHT22;5769;47.998;7.788;2022-11-20T01:06:41;19.50;60.80
11426;DHT22;5769;47.998;7.788;2022-11-20T01:09:11;19.60;61.00
11426;DHT22;5769;47.998;7.788;2022-11-20T01:11:40;19.50;60.90
11426;DHT22;5769;47.998;7.788;2022-11-20T01:14:10;19.50;60.90
11426;DHT22;5769;47.998;7.788;2022-11-20T01:16:40;19.50;61.00
11426;DHT22;5769;47.998;7.788;2022-11-20T01:19:11;19.50;60.60
11426;DHT22;5769;47.998;7.788;2022-11-20T01:21:39;19.50;60.90
11426;DHT22;5769;47.998;7.788;2022-11-20T01:24:10;19.50;60.70
11426;DHT22;5769;47.998;7.788;2022-11-20T01:26:39;19.50;60.70
11426;DHT22;5769;47.998;7.788;2022-11-20T01:29:07;19.50;60.80
11426;DHT22;5769;47.998;7.788;2022-11-20T01:31:36;19.50;60.70
11426;DHT22;5769;47.998;7.788;2022-11-20T01:34:05;19.50;61.10
11426;DHT22;5769;47.998;7.788;2022-11-20T01:36:33;19.50;60.70
11426;DHT22;5769;47.998;7.788;2022-11-20T01:39:04;19.50;60.80
11426;DHT22;5769;47.998;7.788;2022-11-20T01:41:33;19.50;60.70
11426;DHT22;5769;47.998;7.788;2022-11-20T01:44:19;19.50;60.50
11426;DHT22;5769;47.998;7.788;2022-11-20T01:46:53;19.50;60.70
11426;DHT22;5769;47.998;7.788;2022-11-20T01:49:26;19.50;60.60
11426;DHT22;5769;47.998;7.788;2022-11-20T01:51:57;19.50;60.30
11426;DHT22;5769;47.998;7.788;2022-11-20T01:54:29;19.50;60.60
11426;DHT22;5769;47.998;7.788;2022-11-20T01:56:59;19.50;60.50
11426;DHT22;5769;47.998;7.788;2022-11-20T01:59:28;19.50;60.60
11426;DHT22;5769;47.998;7.788;2022-11-20T02:01:56;19.50;60.20
11426;DHT22;5769;47.998;7.788;2022-11-20T02:04:23;19.50;60.30
11426;DHT22;5769;47.998;7.788;2022-11-20T02:06:55;19.50;60.60
11426;DHT22;5769;47.998;7.788;2022-11-20T02:09:23;19.50;60.70
11426;DHT22;5769;47.998;7.788;2022-11-20T02:11:50;19.50;61.20
11426;DHT22;5769;47.998;7.788;2022-11-20T02:14:19;19.50;61.50
11426;DHT22;5769;47.998;7.788;2022-11-20T02:16:47;19.50;60.70
11426;DHT22;5769;47.998;7.788;2022-11-20T02:19:22;19.50;59.60
11426;DHT22;5769;47.998;7.788;2022-11-20T02:21:56;19.50;59.70
11426;DHT22;5769;47.998;7.788;2022-11-20T02:24:28;19.50;60.00
11426;DHT22;5769;47.998;7.788;2022-11-20T02:26:59;19.50;60.40
11426;DHT22;5769;47.998;7.788;2022-11-20T02:29:32;19.50;60.50
11426;DHT22;5769;47.998;7.788;2022-11-20T02:32:00;19.50;60.70
11426;DHT22;5769;47.998;7.788;2022-11-20T02:34:28;19.50;60.80
11426;DHT22;5769;47.998;7.788;2022-11-20T02:36:56;19.50;61.00
11426;DHT22;5769;47.998;7.788;2022-11-20T02:39:25;19.50;61.10
11426;DHT22;5769;47.998;7.788;2022-11-20T02:41:55;19.50;61.30
11426;DHT22;5769;47.998;7.788;2022-11-20T02:44:22;19.50;61.40
11426;DHT22;5769;47.998;7.788;2022-11-20T02:46:49;19.50;61.60
11426;DHT22;5769;47.998;7.788;2022-11-20T02:49:15;19.50;61.60
11426;DHT22;5769;47.998;7.788;2022-11-20T02:51:42;19.50;61.60
11426;DHT22;5769;47.998;7.788;2022-11-20T02:54:09;19.50;61.60
11426;DHT22;5769;47.998;7.788;2022-11-20T02:56:37;19.50;61.80
11426;DHT22;5769;47.998;7.788;2022-11-20T02:59:06;19.50;61.80
11426;DHT22;5769;47.998;7.788;2022-11-20T03:01:33;19.40;61.90
11426;DHT22;5769;47.998;7.788;2022-11-20T03:04:00;19.50;62.00
11426;DHT22;5769;47.998;7.788;2022-11-20T03:06:26;19.50;61.90
11426;DHT22;5769;47.998;7.788;2022-11-20T03:08:53;19.50;62.20
11426;DHT22;5769;47.998;7.788;2022-11-20T03:11:20;19.50;62.30
11426;DHT22;5769;47.998;7.788;2022-11-20T03:13:47;19.50;62.30
11426;DHT22;5769;47.998;7.788;2022-11-20T03:16:17;19.50;62.40
11426;DHT22;5769;47.998;7.788;2022-11-20T03:18:44;19.50;62.40
11426;DHT22;5769;47.998;7.788;2022-11-20T03:21:13;19.50;62.40
11426;DHT22;5769;47.998;7.788;2022-11-20T03:23:40;19.50;62.40
11426;DHT22;5769;47.998;7.788;2022-11-20T03:26:08;19.50;62.40
11426;DHT22;5769;47.998;7.788;2022-11-20T03:28:36;19.50;62.50
11426;DHT22;5769;47.998;7.788;2022-11-20T03:31:08;19.50;62.40
11426;DHT22;5769;47.998;7.788;2022-11-20T03:33:36;19.50;62.70
11426;DHT22;5769;47.998;7.788;2022-11-20T03:36:04;19.50;62.80
11426;DHT22;5769;47.998;7.788;2022-11-20T03:38:32;19.50;62.80
11426;DHT22;5769;47.998;7.788;2022-11-20T03:41:00;19.50;62.80
11426;DHT22;5769;47.998;7.788;2022-11-20T03:43:27;19.50;62.90
11426;DHT22;5769;47.998;7.788;2022-11-20T03:45:54;19.40;62.90
11426;DHT22;5769;47.998;7.788;2022-11-20T03:48:21;19.50;63.00
11426;DHT22;5769;47.998;7.788;2022-11-20T03:50:49;19.50;63.10
11426;DHT22;5769;47.998;7.788;2022-11-20T03:53:16;19.50;63.10
11426;DHT22;5769;47.998;7.788;2022-11-20T03:55:43;19.50;63.10
11426;DHT22;5769;47.998;7.788;2022-11-20T03:58:10;19.40;63.00
11426;DHT22;5769;47.998;7.788;2022-11-20T04:00:36;19.50;63.00
11426;DHT22;5769;47.998;7.788;2022-11-20T04:03:03;19.50;63.00
11426;DHT22;5769;47.998;7.788;2022-11-20T04:05:30;19.50;63.20
11426;DHT22;5769;47.998;7.788;2022-11-20T04:08:00;19.40;63.20
11426;DHT22;5769;47.998;7.788;2022-11-20T04:10:27;19.50;63.20
11426;DHT22;5769;47.998;7.788;2022-11-20T04:12:53;19.50;63.30
11426;DHT22;5769;47.998;7.788;2022-11-20T04:15:20;19.50;63.20
11426;DHT22;5769;47.998;7.788;2022-11-20T04:17:47;19.40;63.20
11426;DHT22;5769;47.998;7.788;2022-11-20T04:20:14;19.50;63.20
11426;DHT22;5769;47.998;7.788;2022-11-20T04:22:41;19.40;63.20
11426;DHT22;5769;47.998;7.788;2022-11-20T04:25:09;19.40;63.30
11426;DHT22;5769;47.998;7.788;2022-11-20T04:27:35;19.40;63.30
11426;DHT22;5769;47.998;7.788;2022-11-20T04:30:03;19.50;63.50
11426;DHT22;5769;47.998;7.788;2022-11-20T04:32:29;19.50;63.40
11426;DHT22;5769;47.998;7.788;2022-11-20T04:34:56;19.50;63.40
11426;DHT22;5769;47.998;7.788;2022-11-20T04:37:23;19.40;63.50
11426;DHT22;5769;47.998;7.788;2022-11-20T04:39:49;19.40;63.50
11426;DHT22;5769;47.998;7.788;2022-11-20T04:42:17;19.40;63.40
11426;DHT22;5769;47.998;7.788;2022-11-20T04:44:57;19.40;63.30
11426;DHT22;5769;47.998;7.788;2022-11-20T04:47:24;19.40;63.50
11426;DHT22;5769;47.998;7.788;2022-11-20T04:49:50;19.50;63.50
11426;DHT22;5769;47.998;7.788;2022-11-20T04:52:17;19.50;63.40
11426;DHT22;5769;47.998;7.788;2022-11-20T04:54:44;19.50;63.50
11426;DHT22;5769;47.998;7.788;2022-11-20T04:57:13;19.40;63.50
11426;DHT22;5769;47.998;7.788;2022-11-20T04:59:41;19.40;63.60
11426;DHT22;5769;47.998;7.788;2022-11-20T05:02:07;19.40;63.60
11426;DHT22;5769;47.998;7.788;2022-11-20T05:04:34;19.40;63.60
11426;DHT22;5769;47.998;7.788;2022-11-20T05:07:01;19.50;63.60
11426;DHT22;5769;47.998;7.788;2022-11-20T05:09:28;19.50;63.60
11426;DHT22;5769;47.998;7.788;2022-11-20T05:11:54;19.40;63.50
11426;DHT22;5769;47.998;7.788;2022-11-20T05:14:21;19.40;63.50
11426;DHT22;5769;47.998;7.788;2022-11-20T05:16:49;19.40;63.70
11426;DHT22;5769;47.998;7.788;2022-11-20T05:19:16;19.40;63.70
11426;DHT22;5769;47.998;7.788;2022-11-20T05:21:42;19.40;63.60
11426;DHT22;5769;47.998;7.788;2022-11-20T05:24:09;19.40;63.60
11426;DHT22;5769;47.998;7.788;2022-11-20T05:26:36;19.40;63.70
11426;DHT22;5769;47.998;7.788;2022-11-20T05:29:03;19.40;63.70
11426;DHT22;5769;47.998;7.788;2022-11-20T05:31:30;19.40;63.60
11426;DHT22;5769;47.998;7.788;2022-11-20T05:33:58;19.50;63.70
11426;DHT22;5769;47.998;7.788;2022-11-20T05:36:25;19.40;63.90
11426;DHT22;5769;47.998;7.788;2022-11-20T05:38:51;19.40;63.70
11426;DHT22;5769;47.998;7.788;2022-11-20T05:41:19;19.40;63.60
11426;DHT22;5769;47.998;7.788;2022-11-20T05:43:47;19.40;63.60
11426;DHT22;5769;47.998;7.788;2022-11-20T05:46:16;19.40;63.60
11426;DHT22;5769;47.998;7.788;2022-11-20T05:48:44;19.40;63.80
11426;DHT22;5769;47.998;7.788;2022-11-20T05:51:15;19.40;63.90
11426;DHT22;5769;47.998;7.788;2022-11-20T05:53:42;19.40;63.60
11426;DHT22;5769;47.998;7.788;2022-11-20T05:56:10;19.40;63.70
11426;DHT22;5769;47.998;7.788;2022-11-20T05:58:37;19.40;63.60
11426;DHT22;5769;47.998;7.788;2022-11-20T06:01:06;19.40;63.80
11426;DHT22;5769;47.998;7.788;2022-11-20T06:03:33;19.40;63.80
11426;DHT22;5769;47.998;7.788;2022-11-20T06:06:00;19.40;63.80
11426;DHT22;5769;47.998;7.788;2022-11-20T06:08:29;19.40;63.80
11426;DHT22;5769;47.998;7.788;2022-11-20T06:10:56;19.40;63.90
11426;DHT22;5769;47.998;7.788;2022-11-20T06:13:23;19.40;63.80
11426;DHT22;5769;47.998;7.788;2022-11-20T06:15:50;19.40;63.70
11426;DHT22;5769;47.998;7.788;2022-11-20T06:18:17;19.40;63.70
11426;DHT22;5769;47.998;7.788;2022-11-20T06:20:44;19.40;63.80
11426;DHT22;5769;47.998;7.788;2022-11-20T06:23:11;19.40;63.90
11426;DHT22;5769;47.998;7.788;2022-11-20T06:25:39;19.40;63.70
11426;DHT22;5769;47.998;7.788;2022-11-20T06:28:07;19.40;63.80
11426;DHT22;5769;47.998;7.788;2022-11-20T06:30:34;19.40;63.70
11426;DHT22;5769;47.998;7.788;2022-11-20T06:33:01;19.40;63.70
11426;DHT22;5769;47.998;7.788;2022-11-20T06:35:27;19.40;63.70
11426;DHT22;5769;47.998;7.788;2022-11-20T06:37:55;19.40;63.80
11426;DHT22;5769;47.998;7.788;2022-11-20T06:40:22;19.40;63.80
11426;DHT22;5769;47.998;7.788;2022-11-20T06:42:50;19.40;63.80
11426;DHT22;5769;47.998;7.788;2022-11-20T06:45:17;19.40;63.70
11426;DHT22;5769;47.998;7.788;2022-11-20T06:47:43;19.40;63.80
11426;DHT22;5769;47.998;7.788;2022-11-20T06:50:10;19.40;63.70
11426;DHT22;5769;47.998;7.788;2022-11-20T06:52:37;19.40;63.80
11426;DHT22;5769;47.998;7.788;2022-11-20T06:55:04;19.40;63.80
11426;DHT22;5769;47.998;7.788;2022-11-20T06:57:31;19.40;64.00
11426;DHT22;5769;47.998;7.788;2022-11-20T06:59:59;19.40;64.00
11426;DHT22;5769;47.998;7.788;2022-11-20T07:02:26;19.40;64.00
11426;DHT22;5769;47.998;7.788;2022-11-20T07:04:53;19.40;63.80
11426;DHT22;5769;47.998;7.788;2022-11-20T07:07:19;19.40;64.00
11426;DHT22;5769;47.998;7.788;2022-11-20T07:09:46;19.40;63.80
11426;DHT22;5769;47.998;7.788;2022-11-20T07:12:13;19.40;63.90
11426;DHT22;5769;47.998;7.788;2022-11-20T07:14:39;19.40;63.90
11426;DHT22;5769;47.998;7.788;2022-11-20T07:17:08;19.40;64.00
11426;DHT22;5769;47.998;7.788;2022-11-20T07:19:34;19.40;64.00
11426;DHT22;5769;47.998;7.788;2022-11-20T07:22:01;19.40;63.80
11426;DHT22;5769;47.998;7.788;2022-11-20T07:24:28;19.40;64.00
11426;DHT22;5769;47.998;7.788;2022-11-20T07:26:54;19.40;63.90
11426;DHT22;5769;47.998;7.788;2022-11-20T07:29:21;19.40;63.80
11426;DHT22;5769;47.998;7.788;2022-11-20T07:31:48;19.40;63.80
11426;DHT22;5769;47.998;7.788;2022-11-20T07:34:16;19.40;64.00
11426;DHT22;5769;47.998;7.788;2022-11-20T07:36:42;19.40;64.00
11426;DHT22;5769;47.998;7.788;2022-11-20T07:39:09;19.40;64.00
11426;DHT22;5769;47.998;7.788;2022-11-20T07:41:36;19.40;64.00
11426;DHT22;5769;47.998;7.788;2022-11-20T07:44:03;19.40;64.00
11426;DHT22;5769;47.998;7.788;2022-11-20T07:46:29;19.40;64.00
11426;DHT22;5769;47.998;7.788;2022-11-20T07:48:56;19.40;64.00
11426;DHT22;5769;47.998;7.788;2022-11-20T07:51:24;19.40;64.00
11426;DHT22;5769;47.998;7.788;2022-11-20T07:53:52;19.40;64.00
11426;DHT22;5769;47.998;7.788;2022-11-20T07:56:20;19.40;64.00
11426;DHT22;5769;47.998;7.788;2022-11-20T07:58:46;19.40;64.00
11426;DHT22;5769;47.998;7.788;2022-11-20T08:01:13;19.40;63.90
11426;DHT22;5769;47.998;7.788;2022-11-20T08:03:40;19.40;64.00
11426;DHT22;5769;47.998;7.788;2022-11-20T08:06:07;19.40;64.00
11426;DHT22;5769;47.998;7.788;2022-11-20T08:08:36;19.40;64.00
11426;DHT22;5769;47.998;7.788;2022-11-20T08:11:04;19.40;64.00
11426;DHT22;5769;47.998;7.788;2022-11-20T08:13:49;19.40;64.00
11426;DHT22;5769;47.998;7.788;2022-11-20T08:16:33;19.40;64.00
11426;DHT22;5769;47.998;7.788;2022-11-20T08:19:00;19.40;64.00
11426;DHT22;5769;47.998;7.788;2022-11-20T08:21:26;19.40;64.00
11426;DHT22;5769;47.998;7.788;2022-11-20T08:23:54;19.40;64.00
11426;DHT22;5769;47.998;7.788;2022-11-20T08:26:21;19.40;64.10
11426;DHT22;5769;47.998;7.788;2022-11-20T08:28:48;19.40;64.00
11426;DHT22;5769;47.998;7.788;2022-11-20T08:31:15;19.40;63.90
11426;DHT22;5769;47.998;7.788;2022-11-20T08:33:42;19.40;64.00
11426;DHT22;5769;47.998;7.788;2022-11-20T08:36:08;19.40;64.00
11426;DHT22;5769;47.998;7.788;2022-11-20T08:38:35;19.40;64.00
11426;DHT22;5769;47.998;7.788;2022-11-20T08:41:04;19.40;64.00
11426;DHT22;5769;47.998;7.788;2022-11-20T08:44:01;19.40;64.00
11426;DHT22;5769;47.998;7.788;2022-11-20T08:46:32;19.40;64.00
11426;DHT22;5769;47.998;7.788;2022-11-20T08:48:59;19.40;64.10
11426;DHT22;5769;47.998;7.788;2022-11-20T08:51:26;19.40;64.00
11426;DHT22;5769;47.998;7.788;2022-11-20T08:53:53;19.40;64.00
11426;DHT22;5769;47.998;7.788;2022-11-20T08:56:21;19.40;64.00
11426;DHT22;5769;47.998;7.788;2022-11-20T08:58:49;19.40;64.10
11426;DHT22;5769;47.998;7.788;2022-11-20T09:01:16;19.40;64.10
11426;DHT22;5769;47.998;7.788;2022-11-20T09:03:42;19.40;64.00
11426;DHT22;5769;47.998;7.788;2022-11-20T09:06:09;19.40;64.10
11426;DHT22;5769;47.998;7.788;2022-11-20T09:08:36;19.40;64.10
11426;DHT22;5769;47.998;7.788;2022-11-20T09:11:03;19.40;64.10
11426;DHT22;5769;47.998;7.788;2022-11-20T09:13:33;19.40;64.20
11426;DHT22;5769;47.998;7.788;2022-11-20T09:16:01;19.40;64.10
11426;DHT22;5769;47.998;7.788;2022-11-20T09:18:29;19.40;64.10
11426;DHT22;5769;47.998;7.788;2022-11-20T09:20:57;19.40;64.10
11426;DHT22;5769;47.998;7.788;2022-11-20T09:23:24;19.40;64.10
11426;DHT22;5769;47.998;7.788;2022-11-20T09:25:51;19.30;64.10
11426;DHT22;5769;47.998;7.788;2022-11-20T09:28:21;19.40;64.20
11426;DHT22;5769;47.998;7.788;2022-11-20T09:30:49;19.40;64.00
11426;DHT22;5769;47.998;7.788;2022-11-20T09:33:15;19.40;64.00
11426;DHT22;5769;47.998;7.788;2022-11-20T09:35:43;19.40;64.00
11426;DHT22;5769;47.998;7.788;2022-11-20T09:38:10;19.40;64.10
11426;DHT22;5769;47.998;7.788;2022-11-20T09:40:43;19.30;64.10
11426;DHT22;5769;47.998;7.788;2022-11-20T09:43:13;19.30;64.30
11426;DHT22;5769;47.998;7.788;2022-11-20T09:45:56;19.30;64.30
11426;DHT22;5769;47.998;7.788;2022-11-20T09:48:35;19.40;64.30
11426;DHT22;5769;47.998;7.788;2022-11-20T09:51:11;19.40;64.50
11426;DHT22;5769;47.998;7.788;2022-11-20T09:53:49;19.40;64.60
11426;DHT22;5769;47.998;7.788;2022-11-20T09:56:19;19.30;64.50
11426;DHT22;5769;47.998;7.788;2022-11-20T09:58:50;19.40;65.40
11426;DHT22;5769;47.998;7.788;2022-11-20T10:01:21;19.30;64.60
11426;DHT22;5769;47.998;7.788;2022-11-20T10:03:55;19.30;64.70
11426;DHT22;5769;47.998;7.788;2022-11-20T10:06:29;19.40;64.80
11426;DHT22;5769;47.998;7.788;2022-11-20T10:09:05;19.30;64.70
11426;DHT22;5769;47.998;7.788;2022-11-20T10:11:39;19.30;64.70
11426;DHT22;5769;47.998;7.788;2022-11-20T10:14:16;19.30;64.70
11426;DHT22;5769;47.998;7.788;2022-11-20T10:16:56;19.30;64.80
11426;DHT22;5769;47.998;7.788;2022-11-20T10:19:39;19.40;64.90
11426;DHT22;5769;47.998;7.788;2022-11-20T10:22:15;19.30;64.90
11426;DHT22;5769;47.998;7.788;2022-11-20T10:24:55;19.30;64.90
11426;DHT22;5769;47.998;7.788;2022-11-20T10:27:38;19.30;65.00
11426;DHT22;5769;47.998;7.788;2022-11-20T10:30:10;19.30;65.00
11426;DHT22;5769;47.998;7.788;2022-11-20T10:32:40;19.40;65.00
11426;DHT22;5769;47.998;7.788;2022-11-20T10:35:18;19.30;65.00
11426;DHT22;5769;47.998;7.788;2022-11-20T10:37:49;19.30;65.00
11426;DHT22;5769;47.998;7.788;2022-11-20T10:40:26;19.30;65.00
11426;DHT22;5769;47.998;7.788;2022-11-20T10:42:55;19.30;65.10
11426;DHT22;5769;47.998;7.788;2022-11-20T10:45:33;19.30;65.00
11426;DHT22;5769;47.998;7.788;2022-11-20T10:48:12;19.30;65.00
11426;DHT22;5769;47.998;7.788;2022-11-20T10:50:49;19.30;65.00
11426;DHT22;5769;47.998;7.788;2022-11-20T10:53:31;19.30;65.10
11426;DHT22;5769;47.998;7.788;2022-11-20T10:56:05;19.30;65.70
11426;DHT22;5769;47.998;7.788;2022-11-20T10:58:37;19.30;65.00
11426;DHT22;5769;47.998;7.788;2022-11-20T11:01:14;19.30;65.10
11426;DHT22;5769;47.998;7.788;2022-11-20T11:03:43;19.30;65.10
11426;DHT22;5769;47.998;7.788;2022-11-20T11:06:17;19.30;65.10
11426;DHT22;5769;47.998;7.788;2022-11-20T11:08:48;19.30;65.20
11426;DHT22;5769;47.998;7.788;2022-11-20T11:11:22;19.30;65.20
11426;DHT22;5769;47.998;7.788;2022-11-20T11:13:50;19.30;65.20
11426;DHT22;5769;47.998;7.788;2022-11-20T11:16:20;19.30;65.20
11426;DHT22;5769;47.998;7.788;2022-11-20T11:18:49;19.30;65.20
11426;DHT22;5769;47.998;7.788;2022-11-20T11:21:22;19.30;65.20
11426;DHT22;5769;47.998;7.788;2022-11-20T11:23:57;19.30;65.20
11426;DHT22;5769;47.998;7.788;2022-11-20T11:26:24;19.30;65.30
11426;DHT22;5769;47.998;7.788;2022-11-20T11:28:57;19.30;65.30
11426;DHT22;5769;47.998;7.788;2022-11-20T11:31:25;19.30;65.30
11426;DHT22;5769;47.998;7.788;2022-11-20T11:34:04;19.30;65.30
11426;DHT22;5769;47.998;7.788;2022-11-20T11:36:32;19.30;65.30
11426;DHT22;5769;47.998;7.788;2022-11-20T11:39:02;19.30;65.30
11426;DHT22;5769;47.998;7.788;2022-11-20T11:41:32;19.30;65.30
11426;DHT22;5769;47.998;7.788;2022-11-20T11:44:12;19.30;65.30
11426;DHT22;5769;47.998;7.788;2022-11-20T11:46:59;19.30;65.30
11426;DHT22;5769;47.998;7.788;2022-11-20T11:49:27;19.30;65.30
11426;DHT22;5769;47.998;7.788;2022-11-20T11:52:03;19.30;65.30
11426;DHT22;5769;47.998;7.788;2022-11-20T11:54:35;19.30;65.40
11426;DHT22;5769;47.998;7.788;2022-11-20T11:57:07;19.30;65.40
11426;DHT22;5769;47.998;7.788;2022-11-20T11:59:44;19.30;65.40
11426;DHT22;5769;47.998;7.788;2022-11-20T12:02:25;19.30;65.40
11426;DHT22;5769;47.998;7.788;2022-11-20T12:04:58;19.30;65.40
11426;DHT22;5769;47.998;7.788;2022-11-20T12:07:36;19.30;65.40
11426;DHT22;5769;47.998;7.788;2022-11-20T12:10:08;19.30;65.40
11426;DHT22;5769;47.998;7.788;2022-11-20T12:12:42;19.30;65.40
11426;DHT22;5769;47.998;7.788;2022-11-20T12:15:11;19.30;65.40
11426;DHT22;5769;47.998;7.788;2022-11-20T12:17:39;19.30;65.40
11426;DHT22;5769;47.998;7.788;2022-11-20T12:20:13;19.30;65.40
11426;DHT22;5769;47.998;7.788;2022-11-20T12:22:45;19.30;65.40
11426;DHT22;5769;47.998;7.788;2022-11-20T12:25:19;19.30;65.50
11426;DHT22;5769;47.998;7.788;2022-11-20T12:28:09;19.30;65.50
11426;DHT22;5769;47.998;7.788;2022-11-20T12:30:42;19.30;65.50
11426;DHT22;5769;47.998;7.788;2022-11-20T12:33:27;19.30;65.50
11426;DHT22;5769;47.998;7.788;2022-11-20T12:36:07;19.30;65.50
11426;DHT22;5769;47.998;7.788;2022-11-20T12:39:07;19.30;65.50
11426;DHT22;5769;47.998;7.788;2022-11-20T12:48:06;19.30;65.60
11426;DHT22;5769;47.998;7.788;2022-11-20T12:50:42;19.30;65.60
11426;DHT22;5769;47.998;7.788;2022-11-20T12:53:22;19.30;65.70
11426;DHT22;5769;47.998;7.788;2022-11-20T12:55:56;19.30;65.60
11426;DHT22;5769;47.998;7.788;2022-11-20T12:58:31;19.30;65.70
11426;DHT22;5769;47.998;7.788;2022-11-20T13:01:07;19.30;65.60
11426;DHT22;5769;47.998;7.788;2022-11-20T13:03:58;19.30;65.60
11426;DHT22;5769;47.998;7.788;2022-11-20T13:06:29;19.30;65.70
11426;DHT22;5769;47.998;7.788;2022-11-20T13:08:57;19.30;65.70
11426;DHT22;5769;47.998;7.788;2022-11-20T13:11:27;19.30;65.60
11426;DHT22;5769;47.998;7.788;2022-11-20T13:14:12;19.30;65.70
11426;DHT22;5769;47.998;7.788;2022-11-20T13:16:46;19.30;65.70
11426;DHT22;5769;47.998;7.788;2022-11-20T13:19:16;19.30;65.70
11426;DHT22;5769;47.998;7.788;2022-11-20T13:21:45;19.30;65.70
11426;DHT22;5769;47.998;7.788;2022-11-20T13:24:24;19.30;65.70
11426;DHT22;5769;47.998;7.788;2022-11-20T13:27:17;19.30;65.70
11426;DHT22;5769;47.998;7.788;2022-11-20T13:29:46;19.30;65.70
11426;DHT22;5769;47.998;7.788;2022-11-20T13:32:15;19.30;65.70
11426;DHT22;5769;47.998;7.788;2022-11-20T13:34:52;19.30;65.70
11426;DHT22;5769;47.998;7.788;2022-11-20T13:37:26;19.30;65.70
11426;DHT22;5769;47.998;7.788;2022-11-20T13:40:11;19.30;65.70
11426;DHT22;5769;47.998;7.788;2022-11-20T13:42:39;19.30;65.70
11426;DHT22;5769;47.998;7.788;2022-11-20T13:45:10;19.30;65.80
11426;DHT22;5769;47.998;7.788;2022-11-20T13:47:37;19.30;65.70
11426;DHT22;5769;47.998;7.788;2022-11-20T13:50:14;19.30;65.80
11426;DHT22;5769;47.998;7.788;2022-11-20T13:52:48;19.30;65.70
11426;DHT22;5769;47.998;7.788;2022-11-20T13:55:24;19.30;65.70
11426;DHT22;5769;47.998;7.788;2022-11-20T13:58:13;19.30;65.80
11426;DHT22;5769;47.998;7.788;2022-11-20T14:00:48;19.30;65.80
11426;DHT22;5769;47.998;7.788;2022-11-20T14:03:19;19.30;65.80
11426;DHT22;5769;47.998;7.788;2022-11-20T14:05:50;19.30;65.80
11426;DHT22;5769;47.998;7.788;2022-11-20T14:08:25;19.30;65.80
11426;DHT22;5769;47.998;7.788;2022-11-20T14:11:05;19.30;65.80
11426;DHT22;5769;47.998;7.788;2022-11-20T14:13:31;19.30;65.80
11426;DHT22;5769;47.998;7.788;2022-11-20T14:15:58;19.30;65.80
11426;DHT22;5769;47.998;7.788;2022-11-20T14:18:26;19.30;65.80
11426;DHT22;5769;47.998;7.788;2022-11-20T14:20:53;19.20;65.80
11426;DHT22;5769;47.998;7.788;2022-11-20T14:23:25;19.30;65.80
11426;DHT22;5769;47.998;7.788;2022-11-20T14:25:52;19.30;65.80
11426;DHT22;5769;47.998;7.788;2022-11-20T14:28:25;19.30;65.80
11426;DHT22;5769;47.998;7.788;2022-11-20T14:30:52;19.30;65.80
11426;DHT22;5769;47.998;7.788;2022-11-20T14:33:20;19.30;65.80
11426;DHT22;5769;47.998;7.788;2022-11-20T14:35:51;19.30;65.80
11426;DHT22;5769;47.998;7.788;2022-11-20T14:38:21;19.30;65.90
11426;DHT22;5769;47.998;7.788;2022-11-20T14:40:48;19.30;65.90
11426;DHT22;5769;47.998;7.788;2022-11-20T14:43:19;19.30;65.80
11426;DHT22;5769;47.998;7.788;2022-11-20T14:45:59;19.30;66.60
11426;DHT22;5769;47.998;7.788;2022-11-20T14:48:30;19.30;65.90
11426;DHT22;5769;47.998;7.788;2022-11-20T14:50:58;19.30;65.80
11426;DHT22;5769;47.998;7.788;2022-11-20T14:53:25;19.30;65.90
11426;DHT22;5769;47.998;7.788;2022-11-20T14:55:57;19.30;65.90
11426;DHT22;5769;47.998;7.788;2022-11-20T14:58:25;19.30;65.90
11426;DHT22;5769;47.998;7.788;2022-11-20T15:00:58;19.30;65.90
11426;DHT22;5769;47.998;7.788;2022-11-20T15:03:31;19.30;65.90
11426;DHT22;5769;47.998;7.788;2022-11-20T15:05:59;19.30;66.00
11426;DHT22;5769;47.998;7.788;2022-11-20T15:08:26;19.30;65.90
11426;DHT22;5769;47.998;7.788;2022-11-20T15:10:53;19.30;65.90
11426;DHT22;5769;47.998;7.788;2022-11-20T15:13:26;19.20;65.90
11426;DHT22;5769;47.998;7.788;2022-11-20T15:15:54;19.30;66.00
11426;DHT22;5769;47.998;7.788;2022-11-20T15:18:25;19.30;66.00
11426;DHT22;5769;47.998;7.788;2022-11-20T15:20:54;19.30;66.00
11426;DHT22;5769;47.998;7.788;2022-11-20T15:23:21;19.30;65.90
11426;DHT22;5769;47.998;7.788;2022-11-20T15:25:48;19.30;66.00
11426;DHT22;5769;47.998;7.788;2022-11-20T15:28:18;19.20;65.90
11426;DHT22;5769;47.998;7.788;2022-11-20T15:30:46;19.20;65.90
11426;DHT22;5769;47.998;7.788;2022-11-20T15:33:13;19.30;66.00
11426;DHT22;5769;47.998;7.788;2022-11-20T15:35:42;19.30;66.00
11426;DHT22;5769;47.998;7.788;2022-11-20T15:38:09;19.20;65.90
11426;DHT22;5769;47.998;7.788;2022-11-20T15:40:36;19.30;66.00
11426;DHT22;5769;47.998;7.788;2022-11-20T15:43:03;19.30;66.00
11426;DHT22;5769;47.998;7.788;2022-11-20T15:45:34;19.20;65.90
11426;DHT22;5769;47.998;7.788;2022-11-20T15:48:03;19.30;66.00
11426;DHT22;5769;47.998;7.788;2022-11-20T15:50:36;19.20;65.90
11426;DHT22;5769;47.998;7.788;2022-11-20T15:53:05;19.20;65.90
11426;DHT22;5769;47.998;7.788;2022-11-20T15:55:31;19.20;66.00
11426;DHT22;5769;47.998;7.788;2022-11-20T15:57:58;19.20;65.90
11426;DHT22;5769;47.998;7.788;2022-11-20T16:00:25;19.20;66.00
11426;DHT22;5769;47.998;7.788;2022-11-20T16:02:52;19.20;66.00
11426;DHT22;5769;47.998;7.788;2022-11-20T16:05:19;19.20;66.00
11426;DHT22;5769;47.998;7.788;2022-11-20T16:07:48;19.20;65.90